createdAt,value
2022-11-04T00:02:20.012Z,8.83
2022-11-04T00:04:50.611Z,8.83
2022-11-04T00:07:35.659Z,8.79
2022-11-04T00:10:04.045Z,8.78
2022-11-04T00:12:31.554Z,8.79
2022-11-04T00:15:20.426Z,8.81
2022-11-04T00:17:48.139Z,8.64
2022-11-04T00:20:35.324Z,8.65
2022-11-04T00:23:21.615Z,8.58
2022-11-04T00:26:08.161Z,8.57
2022-11-04T00:28:53.291Z,8.57
2022-11-04T00:31:39.373Z,8.60
2022-11-04T00:34:07.982Z,8.56
2022-11-04T00:36:38.544Z,8.55
2022-11-04T00:39:08.108Z,8.56
2022-11-04T00:41:36.618Z,8.65
2022-11-04T00:44:07.817Z,8.59
2022-11-04T00:46:36.286Z,8.59
2022-11-04T00:49:06.491Z,8.59
2022-11-04T00:51:35.088Z,8.70
2022-11-04T00:54:05.134Z,8.71
2022-11-04T00:56:34.058Z,8.71
2022-11-04T00:59:02.491Z,8.63
2022-11-04T01:01:31.469Z,8.75
2022-11-04T01:04:00.310Z,8.76
2022-11-04T01:06:29.120Z,8.88
2022-11-04T01:08:58.682Z,8.88
2022-11-04T01:11:30.881Z,8.90
2022-11-04T01:13:59.948Z,8.88
2022-11-04T01:16:29.490Z,8.88
2022-11-04T01:18:58.562Z,8.94
2022-11-04T01:21:26.893Z,8.96
2022-11-04T01:23:56.006Z,8.94
2022-11-04T01:26:26.320Z,8.91
2022-11-04T01:28:58.069Z,8.96
2022-11-04T01:31:29.044Z,8.95
2022-11-04T01:33:59.089Z,9.00
2022-11-04T01:36:28.542Z,9.00
2022-11-04T01:38:58.727Z,9.03
2022-11-04T01:41:29.567Z,8.99
2022-11-04T01:44:02.110Z,8.91
2022-11-04T01:46:41.029Z,8.83
2022-11-04T01:49:25.545Z,8.98
2022-11-04T01:52:00.451Z,8.98
2022-11-04T01:54:30.283Z,8.90
2022-11-04T01:57:02.810Z,8.96
2022-11-04T01:59:37.684Z,9.04
2022-11-04T02:02:06.926Z,8.92
2022-11-04T02:04:36.420Z,8.85
2022-11-04T02:07:07.375Z,8.92
2022-11-04T02:09:37.921Z,8.91
2022-11-04T02:12:24.596Z,8.88
2022-11-04T02:14:55.904Z,8.90
2022-11-04T02:18:04.222Z,8.89
2022-11-04T02:20:54.355Z,8.91
2022-11-04T02:23:58.967Z,8.93
2022-11-04T02:27:03.345Z,8.91
2022-11-04T02:29:51.173Z,8.98
2022-11-04T02:32:28.909Z,8.99
2022-11-04T02:35:05.728Z,8.99
2022-11-04T02:37:44.133Z,8.98
2022-11-04T02:40:26.205Z,8.95
2022-11-04T02:43:00.603Z,8.95
2022-11-04T02:45:37.614Z,8.93
2022-11-04T02:48:13.479Z,8.94
2022-11-04T02:50:50.713Z,8.87
2022-11-04T02:53:23.188Z,9.04
2022-11-04T02:55:56.785Z,9.05
2022-11-04T02:58:32.090Z,8.92
2022-11-04T03:01:06.186Z,9.00
2022-11-04T03:03:37.698Z,9.01
2022-11-04T03:06:09.977Z,8.97
2022-11-04T03:08:43.062Z,8.79
2022-11-04T03:11:15.948Z,8.87
2022-11-04T03:13:49.771Z,8.88
2022-11-04T03:16:26.444Z,8.89
2022-11-04T03:19:03.806Z,8.94
2022-11-04T03:21:39.252Z,8.90
2022-11-04T03:24:08.967Z,8.95
2022-11-04T03:26:43.675Z,8.93
2022-11-04T03:29:24.715Z,8.87
2022-11-04T03:32:05.207Z,8.93
2022-11-04T03:34:34.504Z,8.95
2022-11-04T03:37:04.459Z,8.95
2022-11-04T03:39:34.923Z,8.95
2022-11-04T03:42:20.720Z,9.00
2022-11-04T03:44:51.393Z,8.95
2022-11-04T03:47:24.584Z,8.94
2022-11-04T03:49:58.003Z,8.91
2022-11-04T03:52:27.509Z,8.91
2022-11-04T03:54:56.505Z,8.82
2022-11-04T03:57:49.722Z,8.84
2022-11-04T04:00:20.322Z,8.88
2022-11-04T04:03:09.226Z,8.89
2022-11-04T04:05:43.208Z,8.90
2022-11-04T04:08:23.500Z,8.84
2022-11-04T04:11:03.900Z,8.85
2022-11-04T04:13:39.267Z,8.81
2022-11-04T04:16:13.284Z,8.81
2022-11-04T04:18:47.019Z,8.78
2022-11-04T04:21:19.077Z,8.67
2022-11-04T04:24:08.853Z,8.70
2022-11-04T04:26:57.985Z,8.73
2022-11-04T04:29:29.982Z,8.67
2022-11-04T04:32:01.122Z,8.64
2022-11-04T04:34:34.228Z,8.64
2022-11-04T04:37:07.092Z,8.64
2022-11-04T04:39:58.110Z,8.55
2022-11-04T04:42:44.200Z,8.59
2022-11-04T04:45:23.016Z,8.55
2022-11-04T04:47:55.054Z,8.50
2022-11-04T04:50:30.712Z,8.51
2022-11-04T04:53:02.323Z,8.64
2022-11-04T04:55:31.983Z,8.68
2022-11-04T04:58:00.505Z,8.65
2022-11-04T05:00:29.999Z,8.54
2022-11-04T05:02:58.694Z,8.59
2022-11-04T05:05:29.158Z,8.53
2022-11-04T05:07:58.460Z,8.53
2022-11-04T05:10:27.708Z,8.55
2022-11-04T05:13:13.942Z,8.55
2022-11-04T05:15:42.419Z,8.46
2022-11-04T05:18:11.572Z,8.47
2022-11-04T05:20:41.936Z,8.49
2022-11-04T05:23:14.035Z,8.49
2022-11-04T05:25:43.229Z,8.48
2022-11-04T05:28:13.429Z,8.31
2022-11-04T05:30:43.028Z,8.33
2022-11-04T05:33:12.838Z,8.40
2022-11-04T05:35:43.690Z,8.48
2022-11-04T05:38:12.436Z,8.42
2022-11-04T05:40:41.422Z,8.48
2022-11-04T05:43:10.537Z,8.54
2022-11-04T05:45:39.165Z,8.57
2022-11-04T05:48:09.100Z,8.64
2022-11-04T05:50:38.499Z,8.60
2022-11-04T05:53:09.579Z,8.54
2022-11-04T05:55:38.494Z,8.57
2022-11-04T05:58:09.262Z,8.55
2022-11-04T06:00:38.392Z,8.46
2022-11-04T06:03:10.631Z,8.46
2022-11-04T06:05:42.405Z,8.40
2022-11-04T06:08:14.154Z,8.44
2022-11-04T06:10:44.517Z,8.41
2022-11-04T06:13:13.597Z,8.45
2022-11-04T06:15:42.201Z,8.42
2022-11-04T06:18:11.544Z,8.37
2022-11-04T06:20:39.866Z,8.45
2022-11-04T06:23:08.356Z,8.46
2022-11-04T06:25:38.286Z,8.49
2022-11-04T06:28:07.103Z,8.54
2022-11-04T06:30:36.773Z,8.56
2022-11-04T06:33:05.807Z,8.58
2022-11-04T06:35:36.012Z,8.56
2022-11-04T06:38:04.495Z,8.54
2022-11-04T06:40:33.679Z,8.56
2022-11-04T06:43:03.815Z,8.52
2022-11-04T06:45:32.030Z,8.53
2022-11-04T06:48:01.142Z,8.53
2022-11-04T06:50:29.921Z,8.55
2022-11-04T06:52:58.811Z,8.54
2022-11-04T06:55:27.586Z,8.60
2022-11-04T06:57:56.300Z,8.58
2022-11-04T07:00:26.931Z,8.60
2022-11-04T07:02:55.230Z,8.60
2022-11-04T07:05:23.798Z,8.57
2022-11-04T07:07:52.571Z,8.66
2022-11-04T07:10:21.194Z,8.69
2022-11-04T07:12:50.049Z,8.72
2022-11-04T07:15:20.937Z,8.66
2022-11-04T07:17:53.807Z,8.72
2022-11-04T07:20:23.089Z,8.67
2022-11-04T07:22:51.574Z,8.54
2022-11-04T07:25:20.443Z,8.64
2022-11-04T07:27:49.106Z,8.59
2022-11-04T07:30:17.837Z,8.64
2022-11-04T07:32:46.282Z,8.66
2022-11-04T07:35:16.557Z,8.55
2022-11-04T07:37:46.166Z,8.44
2022-11-04T07:40:14.791Z,8.44
2022-11-04T07:42:44.055Z,8.44
2022-11-04T07:45:12.880Z,8.48
2022-11-04T07:47:41.376Z,8.47
2022-11-04T07:50:11.639Z,8.51
2022-11-04T07:52:43.379Z,8.51
2022-11-04T07:55:14.573Z,8.59
2022-11-04T07:57:48.102Z,8.59
2022-11-04T08:00:18.731Z,8.67
2022-11-04T08:02:47.474Z,8.69
2022-11-04T08:05:17.320Z,8.71
2022-11-04T08:07:48.089Z,8.74
2022-11-04T08:10:16.967Z,8.81
2022-11-04T08:12:45.625Z,8.88
2022-11-04T08:15:13.961Z,8.87
2022-11-04T08:17:42.638Z,8.90
2022-11-04T08:20:12.743Z,8.87
2022-11-04T08:22:40.946Z,8.76
2022-11-04T08:25:13.968Z,8.77
2022-11-04T08:27:42.922Z,8.83
2022-11-04T08:30:12.231Z,8.83
2022-11-04T08:32:41.532Z,8.82
2022-11-04T08:35:12.107Z,8.72
2022-11-04T08:37:41.167Z,8.83
2022-11-04T08:40:12.186Z,8.78
2022-11-04T08:42:41.321Z,8.82
2022-11-04T08:45:10.448Z,8.83
2022-11-04T08:47:40.404Z,8.81
2022-11-04T08:50:09.419Z,8.68
2022-11-04T08:52:37.951Z,8.75
2022-11-04T08:55:07.164Z,8.78
2022-11-04T08:57:37.077Z,8.74
2022-11-04T09:00:07.204Z,8.78
2022-11-04T09:02:35.774Z,8.80
2022-11-04T09:05:04.546Z,8.77
2022-11-04T09:07:33.362Z,8.74
2022-11-04T09:10:02.306Z,8.77
2022-11-04T09:12:31.085Z,8.74
2022-11-04T09:15:01.579Z,8.76
2022-11-04T09:17:31.575Z,8.74
2022-11-04T09:20:00.654Z,8.75
2022-11-04T09:22:33.159Z,8.77
2022-11-04T09:25:02.278Z,8.68
2022-11-04T09:27:32.930Z,8.65
2022-11-04T09:30:03.563Z,8.67
2022-11-04T09:32:31.929Z,8.69
2022-11-04T09:35:00.463Z,8.65
2022-11-04T09:37:29.255Z,8.67
2022-11-04T09:39:58.109Z,8.74
2022-11-04T09:42:45.090Z,8.69
2022-11-04T09:45:23.161Z,8.62
2022-11-04T09:47:57.334Z,8.70
2022-11-04T09:50:28.549Z,8.75
2022-11-04T09:53:01.947Z,8.76
2022-11-04T09:55:36.728Z,8.83
2022-11-04T09:58:06.430Z,8.90
2022-11-04T10:00:39.476Z,9.03
2022-11-04T10:03:22.698Z,9.04
2022-11-04T10:06:11.697Z,9.04
2022-11-04T10:08:53.342Z,8.86
2022-11-04T10:11:32.287Z,9.03
2022-11-04T10:14:25.133Z,9.07
2022-11-04T10:17:08.042Z,9.27
2022-11-04T10:19:52.395Z,9.37
2022-11-04T10:22:28.716Z,9.34
2022-11-04T10:25:11.186Z,9.37
2022-11-04T10:27:43.743Z,9.53
2022-11-04T10:30:18.227Z,9.29
2022-11-04T10:33:01.393Z,9.11
2022-11-04T10:35:36.580Z,9.26
2022-11-04T10:38:20.012Z,9.48
2022-11-04T10:40:51.714Z,9.46
2022-11-04T10:43:30.400Z,9.64
2022-11-04T10:46:15.188Z,9.74
2022-11-04T10:48:52.840Z,9.65
2022-11-04T10:51:24.195Z,9.47
2022-11-04T10:53:57.202Z,9.57
2022-11-04T10:56:37.180Z,9.63
2022-11-04T10:59:20.801Z,9.93
2022-11-04T11:01:54.062Z,9.85
2022-11-04T11:04:33.589Z,9.92
2022-11-04T11:07:03.859Z,9.86
2022-11-04T11:09:35.633Z,9.98
2022-11-04T11:12:36.335Z,10.04
2022-11-04T11:14:59.608Z,9.80
2022-11-04T11:17:39.643Z,9.54
2022-11-04T11:20:22.376Z,9.64
2022-11-04T11:22:53.221Z,9.75
2022-11-04T11:25:29.030Z,9.96
2022-11-04T11:28:01.228Z,10.09
2022-11-04T11:30:34.105Z,9.97
2022-11-04T11:33:07.514Z,10.10
2022-11-04T11:35:45.189Z,9.94
2022-11-04T11:38:20.950Z,9.97
2022-11-04T11:41:22.863Z,10.11
2022-11-04T11:43:46.634Z,10.14
2022-11-04T11:46:16.297Z,10.25
2022-11-04T11:48:52.459Z,9.82
2022-11-04T11:51:32.228Z,10.08
2022-11-04T11:54:16.836Z,10.04
2022-11-04T12:02:44.394Z,9.69
2022-11-04T12:11:17.183Z,9.92
2022-11-04T12:13:51.465Z,9.90
2022-11-04T12:16:35.778Z,9.89
2022-11-04T12:19:16.632Z,9.92
2022-11-04T12:21:52.002Z,9.70
2022-11-04T12:24:34.786Z,9.70
2022-11-04T12:27:13.615Z,10.00
2022-11-04T12:30:02.262Z,10.12
2022-11-04T12:32:43.261Z,10.10
2022-11-04T12:35:36.087Z,10.09
2022-11-04T12:38:20.337Z,10.19
2022-11-04T12:43:58.094Z,9.63
2022-11-04T12:46:34.459Z,9.79
2022-11-04T12:49:29.489Z,9.86
2022-11-04T12:52:08.928Z,9.78
2022-11-04T12:54:52.561Z,9.72
2022-11-04T12:57:33.412Z,9.95
2022-11-04T13:00:11.567Z,9.87
2022-11-04T13:02:47.567Z,10.05
2022-11-04T13:05:32.588Z,10.08
2022-11-04T13:08:13.959Z,10.07
2022-11-04T13:10:48.041Z,10.19
2022-11-04T13:13:22.833Z,10.22
2022-11-04T13:15:57.306Z,10.24
2022-11-04T13:18:30.032Z,10.10
2022-11-04T13:21:04.255Z,10.17
2022-11-04T13:23:40.772Z,10.04
2022-11-04T13:26:16.447Z,10.12
2022-11-04T13:29:04.529Z,10.13
2022-11-04T13:31:47.060Z,10.18
2022-11-04T13:34:29.763Z,10.23
2022-11-04T13:37:11.661Z,10.11
2022-11-04T13:39:46.604Z,9.97
2022-11-04T13:42:40.118Z,9.86
2022-11-04T13:45:15.009Z,9.78
2022-11-04T13:47:50.682Z,9.76
2022-11-04T13:50:37.325Z,9.77
2022-11-04T13:53:09.625Z,9.66
2022-11-04T13:55:50.748Z,9.70
2022-11-04T13:58:27.522Z,9.68
2022-11-04T14:01:15.614Z,9.63
2022-11-04T14:03:56.338Z,9.63
2022-11-04T14:06:56.882Z,9.81
2022-11-04T14:09:57.381Z,9.88
2022-11-04T14:12:38.361Z,9.91
2022-11-04T14:15:39.986Z,9.89
2022-11-04T14:18:30.025Z,9.75
2022-11-04T14:21:10.124Z,9.70
2022-11-04T14:23:39.840Z,9.79
2022-11-04T14:26:12.182Z,9.73
2022-11-04T14:28:45.707Z,9.65
2022-11-04T14:31:17.812Z,9.76
2022-11-04T14:34:04.180Z,9.76
2022-11-04T14:36:38.807Z,9.78
2022-11-04T14:39:22.546Z,9.77
2022-11-04T14:41:58.169Z,9.83
2022-11-04T14:44:33.737Z,9.84
2022-11-04T14:47:15.009Z,9.81
2022-11-04T14:49:49.115Z,9.79
2022-11-04T14:52:21.170Z,9.83
2022-11-04T14:54:51.175Z,9.78
2022-11-04T14:57:22.942Z,9.80
2022-11-04T14:59:52.800Z,9.77
2022-11-04T15:02:24.233Z,9.72
2022-11-04T15:04:59.044Z,9.69
2022-11-04T15:07:34.724Z,9.64
2022-11-04T15:10:05.547Z,9.60
2022-11-04T15:12:52.564Z,9.59
2022-11-04T15:15:34.125Z,9.56
2022-11-04T15:18:07.831Z,9.52
2022-11-04T15:20:47.412Z,9.49
2022-11-04T15:23:20.202Z,9.45
2022-11-04T15:25:50.812Z,9.47
2022-11-04T15:28:26.239Z,9.44
2022-11-04T15:31:09.872Z,9.43
2022-11-04T15:33:43.504Z,9.38
2022-11-04T15:36:17.915Z,9.36
2022-11-04T15:38:51.527Z,9.24
2022-11-04T15:41:40.960Z,9.31
2022-11-04T15:44:18.593Z,9.29
2022-11-04T15:46:52.190Z,9.21
2022-11-04T15:49:26.402Z,9.24
2022-11-04T15:52:00.799Z,9.15
2022-11-04T15:54:31.971Z,9.11
2022-11-04T15:57:06.183Z,9.07
2022-11-04T15:59:37.330Z,9.04
2022-11-04T16:02:08.605Z,9.05
2022-11-04T16:04:43.010Z,8.91
2022-11-04T16:07:25.874Z,8.99
2022-11-04T16:09:56.616Z,8.97
2022-11-04T16:12:31.257Z,9.00
2022-11-04T16:15:01.200Z,9.01
2022-11-04T16:17:31.205Z,9.02
2022-11-04T16:20:06.662Z,8.92
2022-11-04T16:22:40.888Z,8.99
2022-11-04T16:25:21.548Z,9.01
2022-11-04T16:27:52.673Z,8.91
2022-11-04T16:30:22.922Z,8.96
2022-11-04T16:32:54.468Z,9.02
2022-11-04T16:35:25.064Z,9.03
2022-11-04T16:37:57.277Z,8.95
2022-11-04T16:40:27.200Z,8.90
2022-11-04T16:42:56.319Z,8.84
2022-11-04T16:45:28.390Z,8.81
2022-11-04T16:47:58.405Z,8.81
2022-11-04T16:50:28.069Z,8.81
2022-11-04T16:52:58.562Z,8.79
2022-11-04T16:55:27.430Z,8.69
2022-11-04T16:58:02.155Z,8.56
2022-11-04T17:00:33.418Z,8.52
2022-11-04T17:03:02.892Z,8.46
2022-11-04T17:05:33.138Z,8.44
2022-11-04T17:08:06.933Z,8.39
2022-11-04T17:10:37.258Z,8.36
2022-11-04T17:13:05.617Z,8.41
2022-11-04T17:15:36.194Z,8.53
2022-11-04T17:18:06.126Z,8.47
2022-11-04T17:20:35.075Z,8.38
2022-11-04T17:23:05.343Z,8.42
2022-11-04T17:25:34.036Z,8.36
2022-11-04T17:28:03.102Z,8.29
2022-11-04T17:30:31.884Z,8.30
2022-11-04T17:33:00.738Z,8.29
2022-11-04T17:35:29.941Z,8.33
2022-11-04T17:37:58.778Z,8.39
2022-11-04T17:40:29.753Z,8.38
2022-11-04T17:43:15.631Z,8.40
2022-11-04T17:45:46.978Z,8.43
2022-11-04T17:48:16.907Z,8.47
2022-11-04T17:50:45.155Z,8.51
2022-11-04T17:53:14.660Z,8.51
2022-11-04T17:55:46.730Z,8.45
2022-11-04T17:58:15.275Z,8.54
2022-11-04T18:00:44.262Z,8.53
2022-11-04T18:03:13.071Z,8.52
2022-11-04T18:05:42.006Z,8.49
2022-11-04T18:08:11.112Z,8.52
2022-11-04T18:10:40.093Z,8.50
2022-11-04T18:13:10.659Z,8.51
2022-11-04T18:15:39.844Z,8.49
2022-11-04T18:18:08.567Z,8.48
2022-11-04T18:20:37.870Z,8.51
2022-11-04T18:23:08.891Z,8.47
2022-11-04T18:25:40.014Z,8.47
2022-11-04T18:28:11.612Z,8.45
2022-11-04T18:30:42.757Z,8.36
2022-11-04T18:33:11.770Z,8.42
2022-11-04T18:35:41.306Z,8.35
2022-11-04T18:38:10.323Z,8.31
2022-11-04T18:40:38.680Z,8.24
2022-11-04T18:43:09.179Z,8.30
2022-11-04T18:45:39.925Z,8.22
2022-11-04T18:48:08.766Z,8.11
2022-11-04T18:50:37.821Z,8.06
2022-11-04T18:53:07.073Z,8.04
2022-11-04T18:55:35.713Z,7.94
2022-11-04T18:58:04.714Z,7.77
2022-11-04T19:00:34.079Z,7.79
2022-11-04T19:03:05.423Z,7.76
2022-11-04T19:05:33.948Z,7.74
2022-11-04T19:08:03.237Z,7.76
2022-11-04T19:10:31.899Z,7.83
2022-11-04T19:13:17.700Z,7.81
2022-11-04T19:15:46.405Z,7.74
2022-11-04T19:18:17.105Z,7.84
2022-11-04T19:20:47.058Z,7.86
2022-11-04T19:23:15.854Z,7.90
2022-11-04T19:25:44.953Z,7.92
2022-11-04T19:31:06.144Z,7.95
2022-11-04T19:33:36.881Z,8.02
2022-11-04T19:36:06.621Z,8.05
2022-11-04T19:38:35.444Z,8.10
2022-11-04T19:41:06.942Z,8.13
2022-11-04T19:43:35.963Z,8.13
2022-11-04T19:46:05.905Z,8.19
2022-11-04T19:48:36.181Z,8.14
2022-11-04T19:51:05.180Z,8.19
2022-11-04T19:53:33.982Z,8.19
2022-11-04T19:56:02.727Z,8.16
2022-11-04T19:58:31.469Z,8.10
2022-11-04T20:01:08.492Z,8.12
2022-11-04T20:03:39.181Z,8.16
2022-11-04T20:06:11.902Z,8.20
2022-11-04T20:08:41.674Z,8.18
2022-11-04T20:11:11.801Z,8.21
2022-11-04T20:13:48.059Z,8.20
2022-11-04T20:16:21.024Z,8.20
2022-11-04T20:18:54.478Z,8.20
2022-11-04T20:21:24.307Z,8.12
2022-11-04T20:23:56.884Z,8.24
2022-11-04T20:26:28.669Z,8.28
2022-11-04T20:29:01.486Z,8.29
2022-11-04T20:31:31.850Z,8.28
2022-11-04T20:34:05.133Z,8.25
2022-11-04T20:36:34.266Z,8.22
2022-11-04T20:39:07.743Z,8.24
2022-11-04T20:41:36.418Z,8.12
2022-11-04T20:44:05.621Z,7.97
2022-11-04T20:46:35.269Z,7.86
2022-11-04T20:49:05.795Z,7.63
2022-11-04T20:51:37.223Z,7.66
2022-11-04T20:54:08.689Z,7.65
2022-11-04T20:56:39.595Z,7.60
2022-11-04T20:59:09.646Z,7.44
2022-11-04T21:01:40.225Z,7.45
2022-11-04T21:04:14.138Z,7.23
2022-11-04T21:06:43.417Z,7.28
2022-11-04T21:09:14.921Z,7.21
2022-11-04T21:11:45.275Z,7.08
2022-11-04T21:14:16.378Z,7.08
2022-11-04T21:16:45.245Z,7.00
2022-11-04T21:19:16.255Z,7.01
2022-11-04T21:21:47.093Z,6.98
2022-11-04T21:24:17.944Z,6.90
2022-11-04T21:26:49.590Z,7.02
2022-11-04T21:29:20.948Z,6.98
2022-11-04T21:31:49.846Z,6.87
2022-11-04T21:34:23.337Z,6.97
2022-11-04T21:36:53.769Z,6.94
2022-11-04T21:39:23.181Z,6.94
2022-11-04T21:41:51.989Z,6.83
2022-11-04T21:44:20.657Z,6.93
2022-11-04T21:46:52.857Z,6.99
2022-11-04T21:49:22.845Z,6.94
2022-11-04T21:51:51.782Z,6.92
2022-11-04T21:54:20.244Z,6.99
2022-11-04T21:56:51.891Z,6.97
2022-11-04T21:59:20.747Z,6.97
2022-11-04T22:01:49.674Z,7.09
2022-11-04T22:04:18.283Z,6.98
2022-11-04T22:06:48.402Z,6.99
2022-11-04T22:09:17.813Z,7.15
2022-11-04T22:11:47.035Z,7.14
2022-11-04T22:14:16.064Z,7.14
2022-11-04T22:16:44.496Z,7.13
2022-11-04T22:19:15.028Z,7.16
2022-11-04T22:21:45.459Z,7.15
2022-11-04T22:24:17.417Z,7.14
2022-11-04T22:26:47.960Z,7.12
2022-11-04T22:29:16.641Z,7.16
2022-11-04T22:31:45.343Z,7.12
2022-11-04T22:34:14.040Z,7.06
2022-11-04T22:36:42.610Z,7.19
2022-11-04T22:39:16.478Z,7.12
2022-11-04T22:41:48.203Z,7.17
2022-11-04T22:44:16.760Z,7.17
2022-11-04T22:46:46.893Z,7.14
2022-11-04T22:49:15.060Z,7.06
2022-11-04T22:51:43.962Z,7.02
2022-11-04T22:54:12.331Z,6.93
2022-11-04T22:56:40.909Z,6.96
2022-11-04T22:59:12.067Z,6.92
2022-11-04T23:01:40.871Z,6.81
2022-11-04T23:04:12.050Z,6.73
2022-11-04T23:06:41.206Z,6.63
2022-11-04T23:09:11.137Z,6.54
2022-11-04T23:11:56.973Z,6.46
2022-11-04T23:14:49.868Z,6.52
2022-11-04T23:17:39.220Z,6.47
2022-11-04T23:20:11.784Z,6.46
2022-11-04T23:22:58.084Z,6.45
2022-11-04T23:25:26.919Z,6.43
2022-11-04T23:28:13.811Z,6.38
2022-11-04T23:30:47.499Z,6.26
2022-11-04T23:33:16.586Z,6.35
2022-11-04T23:36:04.518Z,6.31
2022-11-04T23:38:33.448Z,6.34
2022-11-04T23:41:22.977Z,6.48
2022-11-04T23:43:52.350Z,6.44
2022-11-04T23:46:43.473Z,6.45
2022-11-04T23:49:30.425Z,6.54
2022-11-04T23:52:31.558Z,6.60
2022-11-04T23:55:17.033Z,6.59
2022-11-04T23:58:02.771Z,6.51
